createdAt,value
2017-07-14T00:00:03.894Z,99.90
2017-07-14T00:02:30.918Z,99.90
2017-07-14T00:04:57.204Z,99.90
2017-07-14T00:07:23.507Z,99.90
2017-07-14T00:09:50.542Z,99.90
2017-07-14T00:12:17.555Z,99.90
2017-07-14T00:14:43.864Z,99.90
2017-07-14T00:17:17.021Z,99.90
2017-07-14T00:19:44.055Z,99.90
2017-07-14T00:22:10.322Z,99.90
2017-07-14T00:24:36.612Z,99.90
2017-07-14T00:27:02.906Z,99.90
2017-07-14T00:29:29.195Z,99.90
2017-07-14T00:31:55.484Z,99.90
2017-07-14T00:34:21.767Z,99.90
2017-07-14T00:36:48.062Z,99.90
2017-07-14T00:39:22.075Z,99.90
2017-07-14T00:41:48.387Z,99.90
2017-07-14T00:44:15.432Z,99.90
2017-07-14T00:46:42.478Z,99.90
2017-07-14T00:49:09.510Z,99.90
2017-07-14T00:51:36.571Z,99.90
2017-07-14T00:54:02.832Z,99.90
2017-07-14T00:56:29.833Z,99.90
2017-07-14T00:58:56.118Z,99.90
2017-07-14T01:01:22.387Z,99.90
2017-07-14T01:03:48.669Z,99.90
2017-07-14T01:06:14.969Z,99.90
2017-07-14T01:08:41.535Z,99.90
2017-07-14T01:11:07.850Z,99.90
2017-07-14T01:13:34.879Z,99.90
2017-07-14T01:16:01.137Z,99.90
2017-07-14T01:18:27.422Z,99.90
2017-07-14T01:20:53.675Z,99.90
2017-07-14T01:23:19.978Z,99.90
2017-07-14T01:25:46.268Z,99.90
2017-07-14T01:28:12.546Z,99.90
2017-07-14T01:30:38.852Z,99.90
2017-07-14T01:33:05.151Z,99.90
2017-07-14T01:35:31.460Z,99.90
2017-07-14T01:37:57.767Z,99.90
2017-07-14T01:40:24.069Z,99.90
2017-07-14T01:42:50.358Z,99.90
2017-07-14T01:45:16.661Z,99.90
2017-07-14T01:47:44.018Z,99.90
2017-07-14T01:50:11.094Z,99.90
2017-07-14T01:52:37.593Z,99.90
2017-07-14T01:55:03.896Z,99.90
2017-07-14T01:57:30.234Z,99.90
2017-07-14T01:59:56.532Z,99.90
2017-07-14T02:02:22.993Z,99.90
2017-07-14T02:04:49.390Z,99.90
2017-07-14T02:07:15.750Z,99.90
2017-07-14T02:09:42.085Z,99.90
2017-07-14T02:12:08.403Z,99.90
2017-07-14T02:14:34.694Z,99.90
2017-07-14T02:17:01.023Z,99.90
2017-07-14T02:19:27.329Z,99.90
2017-07-14T02:21:54.408Z,99.90
2017-07-14T02:24:20.704Z,99.90
2017-07-14T02:26:47.753Z,99.90
2017-07-14T02:29:14.806Z,99.90
2017-07-14T02:31:41.854Z,99.90
2017-07-14T02:34:08.932Z,99.90
2017-07-14T02:36:35.250Z,99.90
2017-07-14T02:39:01.575Z,99.90
2017-07-14T02:41:28.622Z,99.90
2017-07-14T02:43:54.937Z,99.90
2017-07-14T02:46:21.985Z,99.90
2017-07-14T02:48:49.051Z,99.90
2017-07-14T02:51:15.364Z,99.90
2017-07-14T02:53:42.415Z,99.90
2017-07-14T02:56:09.454Z,99.90
2017-07-14T02:58:35.771Z,99.90
2017-07-14T03:01:02.097Z,99.90
2017-07-14T03:03:28.409Z,99.90
2017-07-14T03:05:54.717Z,99.90
2017-07-14T03:08:21.014Z,99.90
2017-07-14T03:10:47.353Z,99.90
2017-07-14T03:13:13.679Z,99.90
2017-07-14T03:15:39.987Z,99.90
2017-07-14T03:18:07.046Z,99.90
2017-07-14T03:20:34.127Z,99.90
2017-07-14T03:23:00.456Z,99.90
2017-07-14T03:25:26.779Z,99.90
2017-07-14T03:27:53.108Z,99.90
2017-07-14T03:30:19.405Z,99.90
2017-07-14T03:32:46.477Z,99.90
2017-07-14T03:35:12.788Z,99.90
2017-07-14T03:37:39.142Z,99.90
2017-07-14T03:40:05.467Z,99.90
2017-07-14T03:42:31.902Z,99.90
2017-07-14T03:44:58.219Z,99.90
2017-07-14T03:47:25.258Z,99.90
2017-07-14T03:49:52.327Z,99.90
2017-07-14T03:52:18.672Z,99.90
2017-07-14T03:54:44.991Z,99.90
2017-07-14T03:57:11.292Z,99.90
2017-07-14T03:59:38.359Z,99.90
2017-07-14T04:02:04.668Z,99.90
2017-07-14T04:04:31.746Z,99.90
2017-07-14T04:06:58.051Z,99.90
2017-07-14T04:09:25.077Z,99.90
2017-07-14T04:11:51.361Z,99.90
2017-07-14T04:14:17.638Z,99.90
2017-07-14T04:16:43.946Z,99.90
2017-07-14T04:19:10.211Z,99.90
2017-07-14T04:21:37.274Z,99.90
2017-07-14T04:24:04.333Z,99.90
2017-07-14T04:26:30.641Z,99.90
2017-07-14T04:28:57.663Z,99.90
2017-07-14T04:31:23.960Z,99.90
2017-07-14T04:33:50.231Z,99.90
2017-07-14T04:36:16.548Z,99.90
2017-07-14T04:38:42.854Z,99.90
2017-07-14T04:41:09.147Z,99.90
2017-07-14T04:43:35.459Z,99.90
2017-07-14T04:46:01.734Z,99.90
2017-07-14T04:48:28.029Z,99.90
2017-07-14T04:50:55.074Z,99.90
2017-07-14T04:53:22.139Z,99.90
2017-07-14T04:55:48.424Z,99.90
2017-07-14T04:58:14.717Z,99.90
2017-07-14T05:00:41.017Z,99.90
2017-07-14T05:03:07.585Z,99.90
2017-07-14T05:05:33.863Z,99.90
2017-07-14T05:08:00.173Z,99.90
2017-07-14T05:10:26.466Z,99.90
2017-07-14T05:12:52.757Z,99.90
2017-07-14T05:15:19.878Z,99.90
2017-07-14T05:17:53.075Z,99.90
2017-07-14T05:20:19.366Z,99.90
2017-07-14T05:22:45.667Z,99.90
2017-07-14T05:25:12.774Z,99.90
2017-07-14T05:27:39.072Z,99.90
2017-07-14T05:30:05.411Z,99.90
2017-07-14T05:32:31.742Z,99.90
2017-07-14T05:34:58.050Z,99.90
2017-07-14T05:37:24.376Z,99.90
2017-07-14T05:39:51.411Z,99.90
2017-07-14T05:42:18.448Z,99.90
2017-07-14T05:44:44.758Z,99.90
2017-07-14T05:47:11.062Z,99.90
2017-07-14T05:49:37.389Z,99.90
2017-07-14T05:52:03.692Z,99.90
2017-07-14T05:54:30.005Z,99.90
2017-07-14T05:56:56.297Z,99.90
2017-07-14T05:59:22.588Z,99.90
2017-07-14T06:01:48.927Z,99.90
2017-07-14T06:04:15.228Z,99.90
2017-07-14T06:06:42.300Z,99.90
2017-07-14T06:09:08.618Z,99.90
2017-07-14T06:11:34.925Z,99.90
2017-07-14T06:14:01.226Z,99.90
2017-07-14T06:16:27.531Z,99.90
2017-07-14T06:18:53.837Z,99.90
2017-07-14T06:21:20.177Z,99.90
2017-07-14T06:23:46.467Z,99.90
2017-07-14T06:26:13.569Z,99.90
2017-07-14T06:28:39.878Z,99.90
2017-07-14T06:31:06.174Z,99.90
2017-07-14T06:33:32.454Z,99.90
2017-07-14T06:35:58.748Z,99.90
2017-07-14T06:38:25.070Z,99.90
2017-07-14T06:40:52.127Z,99.90
2017-07-14T06:43:19.167Z,99.90
2017-07-14T06:45:46.219Z,99.90
2017-07-14T06:48:12.553Z,99.90
2017-07-14T06:50:39.609Z,99.90
2017-07-14T06:53:05.914Z,99.90
2017-07-14T06:55:32.217Z,99.90
2017-07-14T06:57:58.515Z,99.90
2017-07-14T07:00:24.832Z,99.90
2017-07-14T07:02:51.151Z,99.90
2017-07-14T07:05:18.171Z,99.90
2017-07-14T07:07:45.241Z,99.90
2017-07-14T07:10:12.268Z,99.90
2017-07-14T07:12:38.556Z,99.90
2017-07-14T07:15:04.831Z,99.90
2017-07-14T07:17:31.862Z,99.90
2017-07-14T07:19:58.191Z,99.90
2017-07-14T07:22:24.496Z,99.90
2017-07-14T07:24:50.799Z,99.90
2017-07-14T07:27:17.819Z,99.90
2017-07-14T07:29:44.103Z,99.90
2017-07-14T07:32:10.412Z,99.90
2017-07-14T07:34:36.718Z,99.90
2017-07-14T07:37:03.775Z,99.90
2017-07-14T07:39:30.076Z,99.90
2017-07-14T07:41:57.130Z,99.90
2017-07-14T07:44:24.156Z,99.90
2017-07-14T07:46:56.756Z,99.90
2017-07-14T07:49:24.825Z,99.90
2017-07-14T07:51:51.145Z,99.90
2017-07-14T07:54:17.459Z,99.90
2017-07-14T07:56:43.783Z,99.80
2017-07-14T07:59:10.076Z,99.70
2017-07-14T08:01:36.381Z,99.90
2017-07-14T08:04:02.656Z,99.90
2017-07-14T08:06:28.951Z,99.90
2017-07-14T08:08:56.013Z,99.90
2017-07-14T08:11:22.310Z,99.90
2017-07-14T08:13:49.391Z,99.90
2017-07-14T08:16:15.696Z,99.90
2017-07-14T08:18:42.010Z,99.90
2017-07-14T08:21:08.287Z,99.90
2017-07-14T08:23:34.555Z,99.50
2017-07-14T08:26:00.834Z,99.50
2017-07-14T08:28:27.181Z,99.60
2017-07-14T08:30:53.542Z,99.00
2017-07-14T08:33:19.826Z,99.20
2017-07-14T08:35:46.146Z,98.90
2017-07-14T08:38:12.797Z,99.00
2017-07-14T08:40:39.091Z,99.90
2017-07-14T08:43:05.382Z,99.90
2017-07-14T08:45:31.672Z,98.60
2017-07-14T08:47:57.958Z,98.80
2017-07-14T08:50:24.286Z,99.30
2017-07-14T08:52:50.567Z,99.80
2017-07-14T08:55:16.883Z,99.90
2017-07-14T08:57:43.918Z,99.10
2017-07-14T09:00:10.249Z,99.10
2017-07-14T09:02:36.567Z,98.90
2017-07-14T09:05:02.833Z,98.70
2017-07-14T09:07:29.164Z,98.80
2017-07-14T09:09:55.468Z,99.40
2017-07-14T09:12:21.807Z,99.00
2017-07-14T09:14:48.858Z,98.40
2017-07-14T09:17:15.183Z,98.30
2017-07-14T09:19:42.220Z,97.80
2017-07-14T09:22:08.544Z,97.80
2017-07-14T09:24:35.579Z,98.40
2017-07-14T09:27:01.857Z,98.40
2017-07-14T09:29:28.158Z,98.10
2017-07-14T09:31:54.445Z,97.80
2017-07-14T09:34:20.749Z,97.80
2017-07-14T09:36:47.080Z,96.90
2017-07-14T09:39:13.395Z,97.30
2017-07-14T09:41:40.431Z,97.00
2017-07-14T09:44:06.735Z,96.90
2017-07-14T09:46:33.342Z,97.10
2017-07-14T09:48:59.641Z,97.50
2017-07-14T09:51:25.930Z,97.00
2017-07-14T09:53:52.206Z,97.40
2017-07-14T09:56:18.507Z,97.40
2017-07-14T09:58:44.794Z,97.10
2017-07-14T10:01:11.110Z,96.80
2017-07-14T10:03:37.406Z,96.90
2017-07-14T10:06:04.458Z,96.60
2017-07-14T10:08:31.495Z,96.70
2017-07-14T10:10:58.541Z,97.10
2017-07-14T10:13:24.827Z,97.10
2017-07-14T10:15:51.131Z,95.40
2017-07-14T10:18:17.420Z,95.80
2017-07-14T10:20:43.708Z,96.50
2017-07-14T10:23:10.026Z,96.30
2017-07-14T10:25:36.307Z,95.80
2017-07-14T10:28:02.607Z,94.90
2017-07-14T10:30:28.920Z,95.90
2017-07-14T10:32:55.228Z,96.30
2017-07-14T10:35:21.522Z,96.10
2017-07-14T10:37:47.824Z,95.00
2017-07-14T10:40:14.127Z,96.30
2017-07-14T10:42:40.428Z,95.10
2017-07-14T10:45:07.468Z,94.20
2017-07-14T10:47:33.794Z,94.20
2017-07-14T10:50:00.830Z,95.40
2017-07-14T10:52:27.142Z,95.00
2017-07-14T10:54:53.457Z,94.20
2017-07-14T10:57:19.744Z,95.00
2017-07-14T10:59:46.779Z,94.90
2017-07-14T11:02:13.823Z,94.20
2017-07-14T11:04:40.897Z,91.10
2017-07-14T11:07:07.200Z,91.10
2017-07-14T11:09:33.529Z,89.90
2017-07-14T11:11:59.813Z,89.80
2017-07-14T11:14:26.124Z,90.80
2017-07-14T11:16:52.428Z,90.70
2017-07-14T11:19:19.495Z,89.90
2017-07-14T11:21:45.788Z,89.80
2017-07-14T11:24:12.095Z,90.40
2017-07-14T11:26:38.481Z,91.00
2017-07-14T11:29:05.582Z,88.70
2017-07-14T11:31:31.867Z,88.50
2017-07-14T11:33:58.157Z,88.20
2017-07-14T11:36:24.440Z,87.90
2017-07-14T11:38:50.739Z,85.30
2017-07-14T11:41:17.047Z,89.30
2017-07-14T11:43:43.338Z,87.70
2017-07-14T11:46:09.674Z,85.50
2017-07-14T11:48:35.956Z,85.60
2017-07-14T11:51:02.273Z,85.50
2017-07-14T11:53:28.577Z,85.20
2017-07-14T11:55:54.863Z,81.30
2017-07-14T11:58:21.176Z,84.50
2017-07-14T12:00:48.210Z,88.80
2017-07-14T12:03:14.505Z,88.80
2017-07-14T12:05:40.787Z,90.00
2017-07-14T12:08:07.827Z,88.80
2017-07-14T12:10:34.898Z,90.00
2017-07-14T12:13:01.213Z,89.30
2017-07-14T12:15:27.497Z,84.60
2017-07-14T12:17:53.791Z,86.90
2017-07-14T12:20:20.115Z,89.60
2017-07-14T12:22:46.405Z,90.00
2017-07-14T12:25:12.688Z,85.80
2017-07-14T12:27:38.985Z,85.10
2017-07-14T12:30:06.039Z,83.10
2017-07-14T12:32:32.324Z,83.20
2017-07-14T12:34:58.636Z,84.70
2017-07-14T12:37:24.938Z,83.00
2017-07-14T12:39:51.250Z,80.70
2017-07-14T12:42:18.301Z,79.50
2017-07-14T12:44:44.592Z,79.40
2017-07-14T12:47:10.893Z,75.60
2017-07-14T12:49:37.213Z,77.50
2017-07-14T12:52:03.522Z,80.10
2017-07-14T12:54:30.546Z,79.00
2017-07-14T12:56:56.833Z,78.80
2017-07-14T12:59:23.171Z,79.90
2017-07-14T13:01:49.511Z,75.70
2017-07-14T13:04:15.807Z,80.60
2017-07-14T13:06:42.121Z,75.00
2017-07-14T13:09:09.150Z,74.50
2017-07-14T13:11:35.425Z,74.50
2017-07-14T13:14:01.752Z,77.50
2017-07-14T13:16:28.044Z,73.00
2017-07-14T13:18:54.342Z,75.10
2017-07-14T13:21:20.633Z,74.40
2017-07-14T13:23:46.916Z,72.40
2017-07-14T13:26:13.211Z,74.70
2017-07-14T13:28:39.531Z,70.00
2017-07-14T13:31:05.830Z,74.30
2017-07-14T13:33:32.148Z,76.10
2017-07-14T13:35:58.443Z,75.70
2017-07-14T13:38:24.745Z,73.90
2017-07-14T13:40:51.047Z,70.00
2017-07-14T13:43:17.376Z,72.80
2017-07-14T13:45:43.695Z,74.40
2017-07-14T13:48:09.996Z,73.50
2017-07-14T13:50:36.313Z,78.90
2017-07-14T13:53:02.601Z,84.90
2017-07-14T13:55:28.917Z,86.70
2017-07-14T13:57:55.959Z,84.20
2017-07-14T14:00:22.244Z,84.20
2017-07-14T14:02:48.551Z,78.40
2017-07-14T14:05:14.851Z,75.80
2017-07-14T14:07:47.960Z,75.90
2017-07-14T14:10:14.283Z,70.50
2017-07-14T14:12:41.339Z,73.30
2017-07-14T14:15:07.660Z,73.10
2017-07-14T14:17:34.708Z,63.10
2017-07-14T14:20:01.742Z,64.60
2017-07-14T14:22:29.041Z,65.80
2017-07-14T14:24:55.322Z,65.90
2017-07-14T14:27:21.642Z,64.60
2017-07-14T14:29:47.961Z,63.10
2017-07-14T14:32:14.239Z,62.60
2017-07-14T14:34:40.576Z,59.60
2017-07-14T14:37:07.634Z,58.30
2017-07-14T14:39:33.927Z,61.60
2017-07-14T14:42:00.231Z,65.00
2017-07-14T14:44:26.584Z,62.60
2017-07-14T14:46:52.901Z,58.80
2017-07-14T14:49:19.954Z,57.70
2017-07-14T14:51:47.026Z,56.30
2017-07-14T14:54:13.322Z,56.20
2017-07-14T14:56:39.646Z,55.80
2017-07-14T14:59:05.929Z,55.50
2017-07-14T15:01:32.229Z,52.70
2017-07-14T15:03:59.256Z,55.90
2017-07-14T15:06:25.572Z,55.70
2017-07-14T15:08:51.880Z,49.80
2017-07-14T15:11:18.227Z,48.50
2017-07-14T15:13:44.526Z,52.50
2017-07-14T15:16:10.812Z,46.50
2017-07-14T15:18:37.133Z,46.80
2017-07-14T15:21:03.430Z,45.60
2017-07-14T15:23:29.745Z,44.60
2017-07-14T15:25:56.118Z,42.10
2017-07-14T15:28:22.437Z,43.00
2017-07-14T15:30:48.767Z,43.50
2017-07-14T15:33:15.151Z,43.30
2017-07-14T15:35:41.467Z,46.30
2017-07-14T15:38:07.793Z,47.00
2017-07-14T15:40:34.146Z,50.30
2017-07-14T15:43:00.439Z,52.50
2017-07-14T15:45:26.799Z,55.60
2017-07-14T15:47:53.851Z,59.40
2017-07-14T15:50:20.191Z,59.30
2017-07-14T15:52:46.517Z,60.80
2017-07-14T15:55:12.809Z,62.10
2017-07-14T15:57:39.196Z,60.90
2017-07-14T16:00:05.492Z,61.30
2017-07-14T16:02:31.831Z,60.60
2017-07-14T16:04:58.212Z,59.50
2017-07-14T16:07:31.519Z,61.10
2017-07-14T16:09:57.814Z,60.50
2017-07-14T16:12:24.094Z,60.90
2017-07-14T16:14:50.398Z,58.90
2017-07-14T16:17:16.703Z,54.30
2017-07-14T16:19:43.003Z,52.40
2017-07-14T16:22:10.033Z,56.20
2017-07-14T16:24:37.086Z,54.50
2017-07-14T16:27:03.366Z,54.50
2017-07-14T16:29:29.714Z,52.10
2017-07-14T16:31:56.004Z,48.50
2017-07-14T16:34:22.312Z,47.70
2017-07-14T16:36:48.648Z,45.20
2017-07-14T16:39:14.960Z,50.50
2017-07-14T16:41:42.031Z,46.80
2017-07-14T16:44:08.339Z,46.70
2017-07-14T16:46:34.627Z,48.40
2017-07-14T16:49:00.927Z,45.50
2017-07-14T16:51:27.230Z,47.90
2017-07-14T16:53:54.249Z,50.20
2017-07-14T16:56:20.538Z,49.60
2017-07-14T16:58:46.834Z,51.80
2017-07-14T17:01:13.879Z,52.40
2017-07-14T17:03:40.210Z,52.30
2017-07-14T17:06:07.260Z,47.50
2017-07-14T17:08:34.302Z,48.00
2017-07-14T17:11:00.595Z,48.00
2017-07-14T17:13:26.899Z,49.50
2017-07-14T17:15:53.208Z,51.90
2017-07-14T17:18:19.526Z,52.60
2017-07-14T17:20:46.568Z,51.10
2017-07-14T17:23:13.601Z,49.80
2017-07-14T17:25:40.660Z,49.30
2017-07-14T17:28:07.693Z,52.20
2017-07-14T17:30:34.001Z,51.60
2017-07-14T17:33:00.284Z,50.00
2017-07-14T17:35:27.303Z,50.20
2017-07-14T17:37:54.330Z,51.60
2017-07-14T17:40:20.661Z,50.80
2017-07-14T17:42:46.972Z,49.30
2017-07-14T17:45:13.324Z,51.60
2017-07-14T17:47:39.678Z,52.80
2017-07-14T17:50:06.095Z,50.30
2017-07-14T17:52:32.516Z,49.60
2017-07-14T17:54:59.588Z,50.70
2017-07-14T17:57:26.634Z,50.30
2017-07-14T17:59:52.905Z,50.20
2017-07-14T18:02:19.221Z,51.20
2017-07-14T18:04:45.513Z,50.70
2017-07-14T18:07:12.588Z,53.20
2017-07-14T18:09:38.887Z,53.20
2017-07-14T18:12:05.204Z,54.30
2017-07-14T18:14:31.510Z,53.40
2017-07-14T18:16:57.786Z,51.10
2017-07-14T18:19:24.854Z,52.60
2017-07-14T18:21:51.903Z,53.00
2017-07-14T18:24:18.246Z,52.80
2017-07-14T18:26:44.542Z,52.50
2017-07-14T18:29:11.599Z,54.10
2017-07-14T18:31:38.635Z,53.90
2017-07-14T18:34:04.926Z,53.90
2017-07-14T18:36:31.225Z,57.00
2017-07-14T18:38:57.527Z,59.00
2017-07-14T18:41:24.569Z,64.40
2017-07-14T18:43:50.984Z,64.40
2017-07-14T18:46:17.283Z,65.80
2017-07-14T18:48:43.555Z,68.00
2017-07-14T18:51:09.870Z,68.80
2017-07-14T18:53:36.185Z,69.60
2017-07-14T18:56:02.502Z,71.30
2017-07-14T18:58:28.822Z,73.00
2017-07-14T19:00:55.113Z,74.50
2017-07-14T19:03:21.410Z,75.30
2017-07-14T19:05:47.688Z,76.60
2017-07-14T19:08:13.987Z,77.50
2017-07-14T19:10:40.293Z,78.70
2017-07-14T19:13:06.624Z,79.30
2017-07-14T19:15:32.889Z,80.60
2017-07-14T19:17:59.927Z,82.50
2017-07-14T19:20:26.215Z,81.70
2017-07-14T19:22:52.507Z,82.50
2017-07-14T19:25:18.833Z,83.70
2017-07-14T19:27:45.875Z,83.60
2017-07-14T19:30:12.157Z,83.50
2017-07-14T19:32:38.431Z,84.90
2017-07-14T19:35:05.494Z,84.30
2017-07-14T19:37:32.524Z,85.10
2017-07-14T19:39:58.847Z,84.90
2017-07-14T19:42:25.162Z,86.50
2017-07-14T19:44:51.428Z,86.50
2017-07-14T19:47:18.475Z,87.40
2017-07-14T19:49:44.770Z,87.40
2017-07-14T19:52:11.069Z,90.50
2017-07-14T19:54:37.364Z,90.90
2017-07-14T19:57:03.691Z,91.10
2017-07-14T19:59:30.716Z,92.10
2017-07-14T20:01:56.992Z,91.80
2017-07-14T20:04:23.286Z,91.90
2017-07-14T20:06:49.555Z,91.60
2017-07-14T20:09:15.834Z,91.50
2017-07-14T20:11:42.107Z,92.00
2017-07-14T20:14:08.391Z,92.60
2017-07-14T20:16:34.741Z,92.80
2017-07-14T20:19:01.770Z,92.90
2017-07-14T20:21:28.047Z,92.80
2017-07-14T20:23:54.309Z,92.10
2017-07-14T20:26:20.592Z,93.10
2017-07-14T20:28:47.680Z,92.20
2017-07-14T20:31:13.979Z,92.20
2017-07-14T20:33:47.223Z,91.70
2017-07-14T20:36:13.512Z,92.50
2017-07-14T20:38:39.809Z,92.40
2017-07-14T20:41:06.839Z,92.50
2017-07-14T20:43:33.118Z,92.50
2017-07-14T20:45:59.408Z,92.30
2017-07-14T20:48:26.435Z,93.10
2017-07-14T20:50:52.728Z,93.30
2017-07-14T20:53:19.000Z,94.50
2017-07-14T20:55:45.263Z,94.60
2017-07-14T20:58:11.577Z,94.70
2017-07-14T21:00:37.867Z,94.70
2017-07-14T21:03:04.173Z,95.40
2017-07-14T21:05:30.450Z,95.00
2017-07-14T21:07:56.754Z,95.50
2017-07-14T21:10:23.033Z,95.60
2017-07-14T21:12:49.326Z,96.20
2017-07-14T21:15:15.605Z,96.70
2017-07-14T21:17:41.884Z,96.60
2017-07-14T21:20:08.147Z,96.50
2017-07-14T21:22:35.161Z,99.90
2017-07-14T21:25:01.437Z,99.90
2017-07-14T21:27:27.760Z,99.90
2017-07-14T21:29:54.040Z,99.90
2017-07-14T21:32:20.301Z,99.90
2017-07-14T21:34:54.473Z,99.80
2017-07-14T21:37:20.745Z,99.80
2017-07-14T21:39:47.774Z,99.20
2017-07-14T21:42:14.050Z,98.90
2017-07-14T21:44:40.331Z,99.10
2017-07-14T21:47:06.609Z,98.40
2017-07-14T21:49:32.910Z,98.10
2017-07-14T21:51:59.934Z,99.90
2017-07-14T21:54:26.215Z,99.90
2017-07-14T21:56:52.510Z,99.90
2017-07-14T21:59:19.527Z,99.90
2017-07-14T22:01:45.803Z,99.90
2017-07-14T22:04:12.816Z,99.90
2017-07-14T22:06:39.078Z,99.90
2017-07-14T22:09:05.373Z,99.90
2017-07-14T22:11:31.638Z,99.90
2017-07-14T22:13:58.659Z,99.90
2017-07-14T22:16:25.698Z,99.90
2017-07-14T22:18:51.970Z,99.90
2017-07-14T22:21:18.229Z,99.90
2017-07-14T22:23:44.501Z,99.90
2017-07-14T22:26:10.768Z,99.90
2017-07-14T22:28:37.062Z,99.90
2017-07-14T22:31:03.361Z,99.90
2017-07-14T22:33:29.633Z,99.90
2017-07-14T22:35:56.639Z,99.90
2017-07-14T22:38:22.911Z,99.90
2017-07-14T22:40:49.171Z,99.90
2017-07-14T22:43:15.439Z,99.90
2017-07-14T22:45:41.714Z,99.90
2017-07-14T22:48:07.991Z,99.90
2017-07-14T22:50:34.303Z,99.90
2017-07-14T22:53:00.567Z,99.90
2017-07-14T22:55:26.848Z,99.90
2017-07-14T22:57:53.136Z,99.90
2017-07-14T23:00:20.158Z,99.90
2017-07-14T23:02:47.179Z,99.90
2017-07-14T23:05:13.458Z,99.90
2017-07-14T23:07:40.458Z,99.90
2017-07-14T23:10:06.732Z,99.90
2017-07-14T23:12:33.738Z,99.90
2017-07-14T23:15:00.011Z,99.90
2017-07-14T23:17:27.022Z,99.90
2017-07-14T23:19:53.298Z,99.90
2017-07-14T23:22:19.571Z,99.90
2017-07-14T23:24:45.826Z,99.90
2017-07-14T23:27:12.115Z,99.90
2017-07-14T23:29:38.387Z,99.90
2017-07-14T23:32:04.663Z,99.90
2017-07-14T23:34:30.933Z,99.90
2017-07-14T23:36:57.220Z,99.90
2017-07-14T23:39:23.487Z,99.90
2017-07-14T23:41:49.759Z,99.90
2017-07-14T23:44:16.053Z,99.90
2017-07-14T23:46:42.359Z,99.90
2017-07-14T23:49:08.622Z,99.90
2017-07-14T23:51:35.635Z,99.90
2017-07-14T23:54:01.918Z,99.90
2017-07-14T23:56:28.198Z,99.90
2017-07-14T23:58:54.473Z,99.90
